sensor_id;sensor_type;location;lat;lon;timestamp;P1;durP1;ratioP1;P2;durP2;ratioP2
27539;SDS011;15906;52.046;4.724;2023-06-10T00:01:12;15.30;;;11.52;;
27539;SDS011;15906;52.046;4.724;2023-06-10T00:03:38;14.60;;;11.98;;
27539;SDS011;15906;52.046;4.724;2023-06-10T00:06:04;11.63;;;10.48;;
27539;SDS011;15906;52.046;4.724;2023-06-10T00:08:30;19.23;;;13.32;;
27539;SDS011;15906;52.046;4.724;2023-06-10T00:10:56;13.15;;;10.85;;
27539;SDS011;15906;52.046;4.724;2023-06-10T00:13:21;14.27;;;11.70;;
27539;SDS011;15906;52.046;4.724;2023-06-10T00:15:47;13.05;;;9.95;;
27539;SDS011;15906;52.046;4.724;2023-06-10T00:18:13;17.00;;;11.15;;
27539;SDS011;15906;52.046;4.724;2023-06-10T00:20:39;16.70;;;10.40;;
27539;SDS011;15906;52.046;4.724;2023-06-10T00:23:04;15.73;;;10.50;;
27539;SDS011;15906;52.046;4.724;2023-06-10T00:25:33;13.13;;;10.85;;
27539;SDS011;15906;52.046;4.724;2023-06-10T00:27:59;12.40;;;10.27;;
27539;SDS011;15906;52.046;4.724;2023-06-10T00:30:25;13.63;;;10.55;;
27539;SDS011;15906;52.046;4.724;2023-06-10T00:32:51;13.95;;;10.35;;
27539;SDS011;15906;52.046;4.724;2023-06-10T00:35:16;14.30;;;10.70;;
27539;SDS011;15906;52.046;4.724;2023-06-10T00:37:42;15.65;;;11.18;;
27539;SDS011;15906;52.046;4.724;2023-06-10T00:40:08;12.40;;;10.45;;
27539;SDS011;15906;52.046;4.724;2023-06-10T00:42:34;13.50;;;10.23;;
27539;SDS011;15906;52.046;4.724;2023-06-10T00:45:00;13.65;;;10.50;;
27539;SDS011;15906;52.046;4.724;2023-06-10T00:47:25;11.15;;;9.75;;
27539;SDS011;15906;52.046;4.724;2023-06-10T00:49:52;13.43;;;9.75;;
27539;SDS011;15906;52.046;4.724;2023-06-10T00:52:19;11.98;;;9.60;;
27539;SDS011;15906;52.046;4.724;2023-06-10T00:54:45;16.27;;;10.13;;
27539;SDS011;15906;52.046;4.724;2023-06-10T00:57:12;11.93;;;9.57;;
27539;SDS011;15906;52.046;4.724;2023-06-10T00:59:39;12.52;;;9.88;;
27539;SDS011;15906;52.046;4.724;2023-06-10T01:02:06;13.52;;;8.63;;
27539;SDS011;15906;52.046;4.724;2023-06-10T01:04:32;12.40;;;8.70;;
27539;SDS011;15906;52.046;4.724;2023-06-10T01:09:32;12.18;;;8.68;;
27539;SDS011;15906;52.046;4.724;2023-06-10T01:12:12;12.48;;;9.45;;
27539;SDS011;15906;52.046;4.724;2023-06-10T01:14:48;11.55;;;8.90;;
27539;SDS011;15906;52.046;4.724;2023-06-10T01:17:16;14.38;;;9.20;;
27539;SDS011;15906;52.046;4.724;2023-06-10T01:19:43;12.57;;;8.48;;
27539;SDS011;15906;52.046;4.724;2023-06-10T01:22:09;12.23;;;8.50;;
27539;SDS011;15906;52.046;4.724;2023-06-10T01:24:35;12.18;;;8.95;;
27539;SDS011;15906;52.046;4.724;2023-06-10T01:27:03;13.25;;;8.35;;
27539;SDS011;15906;52.046;4.724;2023-06-10T01:29:37;11.55;;;8.02;;
27539;SDS011;15906;52.046;4.724;2023-06-10T01:32:12;13.32;;;7.85;;
27539;SDS011;15906;52.046;4.724;2023-06-10T01:34:46;11.43;;;8.20;;
27539;SDS011;15906;52.046;4.724;2023-06-10T01:37:16;12.88;;;7.60;;
27539;SDS011;15906;52.046;4.724;2023-06-10T01:39:44;15.02;;;8.75;;
27539;SDS011;15906;52.046;4.724;2023-06-10T01:42:11;11.65;;;7.65;;
27539;SDS011;15906;52.046;4.724;2023-06-10T01:44:38;9.18;;;7.25;;
27539;SDS011;15906;52.046;4.724;2023-06-10T01:47:04;17.50;;;8.27;;
27539;SDS011;15906;52.046;4.724;2023-06-10T01:49:30;9.32;;;7.25;;
27539;SDS011;15906;52.046;4.724;2023-06-10T01:51:55;15.90;;;8.05;;
27539;SDS011;15906;52.046;4.724;2023-06-10T01:54:21;12.00;;;7.43;;
27539;SDS011;15906;52.046;4.724;2023-06-10T01:56:46;12.75;;;7.88;;
27539;SDS011;15906;52.046;4.724;2023-06-10T01:59:12;9.15;;;7.35;;
27539;SDS011;15906;52.046;4.724;2023-06-10T02:01:38;12.90;;;8.10;;
27539;SDS011;15906;52.046;4.724;2023-06-10T02:04:03;15.75;;;7.97;;
27539;SDS011;15906;52.046;4.724;2023-06-10T02:06:29;12.52;;;8.18;;
27539;SDS011;15906;52.046;4.724;2023-06-10T02:08:55;9.95;;;7.70;;
27539;SDS011;15906;52.046;4.724;2023-06-10T02:11:20;11.45;;;8.57;;
27539;SDS011;15906;52.046;4.724;2023-06-10T02:13:46;11.82;;;8.43;;
27539;SDS011;15906;52.046;4.724;2023-06-10T02:16:12;16.08;;;7.97;;
27539;SDS011;15906;52.046;4.724;2023-06-10T02:18:39;11.23;;;7.68;;
27539;SDS011;15906;52.046;4.724;2023-06-10T02:21:07;11.77;;;8.00;;
27539;SDS011;15906;52.046;4.724;2023-06-10T02:23:33;11.10;;;7.72;;
27539;SDS011;15906;52.046;4.724;2023-06-10T02:25:59;11.77;;;7.88;;
27539;SDS011;15906;52.046;4.724;2023-06-10T02:28:28;12.88;;;7.90;;
27539;SDS011;15906;52.046;4.724;2023-06-10T02:30:53;15.32;;;8.13;;
27539;SDS011;15906;52.046;4.724;2023-06-10T02:33:19;10.07;;;7.85;;
27539;SDS011;15906;52.046;4.724;2023-06-10T02:35:45;10.85;;;7.30;;
27539;SDS011;15906;52.046;4.724;2023-06-10T02:38:10;13.05;;;8.13;;
27539;SDS011;15906;52.046;4.724;2023-06-10T02:40:36;13.35;;;9.07;;
27539;SDS011;15906;52.046;4.724;2023-06-10T02:43:02;13.80;;;7.97;;
27539;SDS011;15906;52.046;4.724;2023-06-10T02:45:27;10.45;;;7.72;;
27539;SDS011;15906;52.046;4.724;2023-06-10T02:47:53;14.10;;;8.32;;
27539;SDS011;15906;52.046;4.724;2023-06-10T02:50:18;11.90;;;8.50;;
27539;SDS011;15906;52.046;4.724;2023-06-10T02:52:44;11.93;;;7.65;;
27539;SDS011;15906;52.046;4.724;2023-06-10T02:55:09;10.00;;;7.60;;
27539;SDS011;15906;52.046;4.724;2023-06-10T02:57:35;11.60;;;7.72;;
27539;SDS011;15906;52.046;4.724;2023-06-10T03:00:01;11.43;;;8.13;;
27539;SDS011;15906;52.046;4.724;2023-06-10T03:02:29;15.60;;;8.10;;
27539;SDS011;15906;52.046;4.724;2023-06-10T03:04:56;11.05;;;8.13;;
27539;SDS011;15906;52.046;4.724;2023-06-10T03:07:22;11.52;;;7.88;;
27539;SDS011;15906;52.046;4.724;2023-06-10T03:09:48;12.80;;;7.75;;
27539;SDS011;15906;52.046;4.724;2023-06-10T03:12:14;12.68;;;8.10;;
27539;SDS011;15906;52.046;4.724;2023-06-10T03:14:41;9.70;;;7.20;;
27539;SDS011;15906;52.046;4.724;2023-06-10T03:17:06;12.23;;;7.88;;
27539;SDS011;15906;52.046;4.724;2023-06-10T03:19:33;11.13;;;7.13;;
27539;SDS011;15906;52.046;4.724;2023-06-10T03:22:09;14.48;;;7.13;;
27539;SDS011;15906;52.046;4.724;2023-06-10T03:24:36;12.93;;;7.30;;
27539;SDS011;15906;52.046;4.724;2023-06-10T03:27:05;11.77;;;7.25;;
27539;SDS011;15906;52.046;4.724;2023-06-10T03:29:35;15.07;;;8.15;;
27539;SDS011;15906;52.046;4.724;2023-06-10T03:32:00;13.75;;;7.25;;
27539;SDS011;15906;52.046;4.724;2023-06-10T03:34:26;10.52;;;7.03;;
27539;SDS011;15906;52.046;4.724;2023-06-10T03:36:52;10.82;;;7.22;;
27539;SDS011;15906;52.046;4.724;2023-06-10T03:39:17;10.98;;;7.63;;
27539;SDS011;15906;52.046;4.724;2023-06-10T03:41:43;11.18;;;6.75;;
27539;SDS011;15906;52.046;4.724;2023-06-10T03:44:08;11.45;;;6.88;;
27539;SDS011;15906;52.046;4.724;2023-06-10T03:46:34;15.63;;;7.07;;
27539;SDS011;15906;52.046;4.724;2023-06-10T03:48:59;13.90;;;8.10;;
27539;SDS011;15906;52.046;4.724;2023-06-10T03:51:26;15.75;;;7.80;;
27539;SDS011;15906;52.046;4.724;2023-06-10T03:53:52;10.23;;;6.78;;
27539;SDS011;15906;52.046;4.724;2023-06-10T03:56:18;10.93;;;6.68;;
27539;SDS011;15906;52.046;4.724;2023-06-10T03:58:43;10.10;;;7.30;;
27539;SDS011;15906;52.046;4.724;2023-06-10T04:01:09;14.13;;;7.57;;
27539;SDS011;15906;52.046;4.724;2023-06-10T04:03:35;9.15;;;6.97;;
27539;SDS011;15906;52.046;4.724;2023-06-10T04:06:01;10.52;;;7.10;;
27539;SDS011;15906;52.046;4.724;2023-06-10T04:08:27;10.85;;;7.90;;
27539;SDS011;15906;52.046;4.724;2023-06-10T04:10:53;10.02;;;7.00;;
27539;SDS011;15906;52.046;4.724;2023-06-10T04:13:19;11.98;;;7.25;;
27539;SDS011;15906;52.046;4.724;2023-06-10T04:15:44;9.30;;;7.00;;
27539;SDS011;15906;52.046;4.724;2023-06-10T04:18:10;10.35;;;7.22;;
27539;SDS011;15906;52.046;4.724;2023-06-10T04:20:35;10.68;;;6.95;;
27539;SDS011;15906;52.046;4.724;2023-06-10T04:23:01;10.90;;;7.03;;
27539;SDS011;15906;52.046;4.724;2023-06-10T04:25:27;11.85;;;7.65;;
27539;SDS011;15906;52.046;4.724;2023-06-10T04:27:53;10.88;;;7.47;;
27539;SDS011;15906;52.046;4.724;2023-06-10T04:30:19;11.10;;;7.18;;
27539;SDS011;15906;52.046;4.724;2023-06-10T04:32:45;13.32;;;7.20;;
27539;SDS011;15906;52.046;4.724;2023-06-10T04:35:12;10.18;;;6.97;;
27539;SDS011;15906;52.046;4.724;2023-06-10T04:37:39;12.80;;;7.00;;
27539;SDS011;15906;52.046;4.724;2023-06-10T04:40:05;11.48;;;7.28;;
27539;SDS011;15906;52.046;4.724;2023-06-10T04:42:33;8.27;;;7.20;;
27539;SDS011;15906;52.046;4.724;2023-06-10T04:45:00;13.73;;;7.53;;
27539;SDS011;15906;52.046;4.724;2023-06-10T04:47:25;11.45;;;6.85;;
27539;SDS011;15906;52.046;4.724;2023-06-10T04:49:51;11.93;;;7.50;;
27539;SDS011;15906;52.046;4.724;2023-06-10T04:52:17;11.77;;;7.43;;
27539;SDS011;15906;52.046;4.724;2023-06-10T04:54:42;14.57;;;7.35;;
27539;SDS011;15906;52.046;4.724;2023-06-10T04:57:08;10.75;;;6.47;;
27539;SDS011;15906;52.046;4.724;2023-06-10T04:59:34;11.93;;;7.38;;
27539;SDS011;15906;52.046;4.724;2023-06-10T05:02:03;11.75;;;7.75;;
27539;SDS011;15906;52.046;4.724;2023-06-10T05:04:30;10.52;;;7.18;;
27539;SDS011;15906;52.046;4.724;2023-06-10T05:06:55;12.35;;;7.35;;
27539;SDS011;15906;52.046;4.724;2023-06-10T05:09:21;10.13;;;7.50;;
27539;SDS011;15906;52.046;4.724;2023-06-10T05:11:48;16.95;;;7.07;;
27539;SDS011;15906;52.046;4.724;2023-06-10T05:14:13;11.50;;;7.13;;
27539;SDS011;15906;52.046;4.724;2023-06-10T05:16:44;8.63;;;7.18;;
27539;SDS011;15906;52.046;4.724;2023-06-10T05:19:09;14.10;;;8.05;;
27539;SDS011;15906;52.046;4.724;2023-06-10T05:21:35;12.88;;;7.55;;
27539;SDS011;15906;52.046;4.724;2023-06-10T05:24:00;8.63;;;6.78;;
27539;SDS011;15906;52.046;4.724;2023-06-10T05:26:26;10.43;;;7.15;;
27539;SDS011;15906;52.046;4.724;2023-06-10T05:29:17;13.85;;;7.72;;
27539;SDS011;15906;52.046;4.724;2023-06-10T05:31:44;13.13;;;7.68;;
27539;SDS011;15906;52.046;4.724;2023-06-10T05:34:10;11.65;;;7.13;;
27539;SDS011;15906;52.046;4.724;2023-06-10T05:36:36;11.90;;;7.43;;
27539;SDS011;15906;52.046;4.724;2023-06-10T05:39:02;16.35;;;7.55;;
27539;SDS011;15906;52.046;4.724;2023-06-10T05:41:28;13.15;;;7.68;;
27539;SDS011;15906;52.046;4.724;2023-06-10T05:43:53;10.30;;;7.95;;
27539;SDS011;15906;52.046;4.724;2023-06-10T05:46:19;13.65;;;7.43;;
27539;SDS011;15906;52.046;4.724;2023-06-10T05:48:45;13.77;;;7.00;;
27539;SDS011;15906;52.046;4.724;2023-06-10T05:51:10;13.32;;;7.60;;
27539;SDS011;15906;52.046;4.724;2023-06-10T05:53:36;11.60;;;7.68;;
27539;SDS011;15906;52.046;4.724;2023-06-10T05:56:02;12.52;;;6.80;;
27539;SDS011;15906;52.046;4.724;2023-06-10T05:58:27;16.73;;;7.70;;
27539;SDS011;15906;52.046;4.724;2023-06-10T06:00:53;11.48;;;7.63;;
27539;SDS011;15906;52.046;4.724;2023-06-10T06:03:18;14.25;;;7.55;;
27539;SDS011;15906;52.046;4.724;2023-06-10T06:05:44;9.50;;;7.18;;
27539;SDS011;15906;52.046;4.724;2023-06-10T06:08:11;11.05;;;7.25;;
27539;SDS011;15906;52.046;4.724;2023-06-10T06:10:38;11.27;;;7.50;;
27539;SDS011;15906;52.046;4.724;2023-06-10T06:13:03;12.73;;;6.97;;
27539;SDS011;15906;52.046;4.724;2023-06-10T06:15:29;9.00;;;7.00;;
27539;SDS011;15906;52.046;4.724;2023-06-10T06:17:55;12.65;;;7.13;;
27539;SDS011;15906;52.046;4.724;2023-06-10T06:20:21;9.18;;;6.78;;
27539;SDS011;15906;52.046;4.724;2023-06-10T06:22:47;12.30;;;6.82;;
27539;SDS011;15906;52.046;4.724;2023-06-10T06:25:12;9.98;;;7.63;;
27539;SDS011;15906;52.046;4.724;2023-06-10T06:27:38;9.77;;;6.97;;
27539;SDS011;15906;52.046;4.724;2023-06-10T06:30:04;13.88;;;7.22;;
27539;SDS011;15906;52.046;4.724;2023-06-10T06:32:30;10.13;;;6.93;;
27539;SDS011;15906;52.046;4.724;2023-06-10T06:35:01;13.30;;;6.95;;
27539;SDS011;15906;52.046;4.724;2023-06-10T06:37:26;12.40;;;6.82;;
27539;SDS011;15906;52.046;4.724;2023-06-10T06:39:52;14.82;;;7.15;;
27539;SDS011;15906;52.046;4.724;2023-06-10T06:42:19;11.20;;;6.32;;
27539;SDS011;15906;52.046;4.724;2023-06-10T06:44:46;11.07;;;6.90;;
27539;SDS011;15906;52.046;4.724;2023-06-10T06:47:12;9.25;;;6.90;;
27539;SDS011;15906;52.046;4.724;2023-06-10T06:49:37;13.15;;;7.70;;
27539;SDS011;15906;52.046;4.724;2023-06-10T06:52:03;13.85;;;7.55;;
27539;SDS011;15906;52.046;4.724;2023-06-10T06:54:29;12.52;;;6.50;;
27539;SDS011;15906;52.046;4.724;2023-06-10T06:56:55;9.43;;;7.13;;
27539;SDS011;15906;52.046;4.724;2023-06-10T06:59:21;10.88;;;6.93;;
27539;SDS011;15906;52.046;4.724;2023-06-10T07:01:46;12.55;;;7.22;;
27539;SDS011;15906;52.046;4.724;2023-06-10T07:04:14;12.70;;;6.78;;
27539;SDS011;15906;52.046;4.724;2023-06-10T07:06:40;9.13;;;6.80;;
27539;SDS011;15906;52.046;4.724;2023-06-10T07:09:06;9.25;;;6.95;;
27539;SDS011;15906;52.046;4.724;2023-06-10T07:11:33;8.95;;;6.28;;
27539;SDS011;15906;52.046;4.724;2023-06-10T07:13:59;10.50;;;6.20;;
27539;SDS011;15906;52.046;4.724;2023-06-10T07:16:25;11.02;;;6.85;;
27539;SDS011;15906;52.046;4.724;2023-06-10T07:18:52;12.52;;;7.25;;
27539;SDS011;15906;52.046;4.724;2023-06-10T07:21:17;10.65;;;6.95;;
27539;SDS011;15906;52.046;4.724;2023-06-10T07:23:43;13.95;;;6.50;;
27539;SDS011;15906;52.046;4.724;2023-06-10T07:26:09;9.55;;;6.50;;
27539;SDS011;15906;52.046;4.724;2023-06-10T07:28:36;9.98;;;7.10;;
27539;SDS011;15906;52.046;4.724;2023-06-10T07:31:02;13.57;;;7.68;;
27539;SDS011;15906;52.046;4.724;2023-06-10T07:33:28;11.32;;;6.13;;
27539;SDS011;15906;52.046;4.724;2023-06-10T07:35:54;11.55;;;6.57;;
27539;SDS011;15906;52.046;4.724;2023-06-10T07:38:20;7.15;;;6.15;;
27539;SDS011;15906;52.046;4.724;2023-06-10T07:40:45;10.07;;;6.25;;
27539;SDS011;15906;52.046;4.724;2023-06-10T07:43:11;12.20;;;6.40;;
27539;SDS011;15906;52.046;4.724;2023-06-10T07:45:39;8.90;;;6.85;;
27539;SDS011;15906;52.046;4.724;2023-06-10T07:48:05;12.60;;;6.75;;
27539;SDS011;15906;52.046;4.724;2023-06-10T07:50:31;8.40;;;6.00;;
27539;SDS011;15906;52.046;4.724;2023-06-10T07:52:56;10.13;;;6.78;;
27539;SDS011;15906;52.046;4.724;2023-06-10T07:55:22;8.52;;;6.47;;
27539;SDS011;15906;52.046;4.724;2023-06-10T07:57:47;9.50;;;6.55;;
27539;SDS011;15906;52.046;4.724;2023-06-10T08:00:13;9.35;;;6.65;;
27539;SDS011;15906;52.046;4.724;2023-06-10T08:02:39;9.60;;;6.78;;
27539;SDS011;15906;52.046;4.724;2023-06-10T08:05:05;8.48;;;6.65;;
27539;SDS011;15906;52.046;4.724;2023-06-10T08:07:30;9.65;;;6.60;;
27539;SDS011;15906;52.046;4.724;2023-06-10T08:09:56;11.60;;;7.05;;
27539;SDS011;15906;52.046;4.724;2023-06-10T08:12:22;12.57;;;7.55;;
27539;SDS011;15906;52.046;4.724;2023-06-10T08:14:48;9.45;;;6.55;;
27539;SDS011;15906;52.046;4.724;2023-06-10T08:17:14;8.50;;;6.70;;
27539;SDS011;15906;52.046;4.724;2023-06-10T08:19:39;8.75;;;6.65;;
27539;SDS011;15906;52.046;4.724;2023-06-10T08:22:05;15.98;;;7.25;;
27539;SDS011;15906;52.046;4.724;2023-06-10T08:24:30;9.38;;;6.43;;
27539;SDS011;15906;52.046;4.724;2023-06-10T08:26:56;11.85;;;6.68;;
27539;SDS011;15906;52.046;4.724;2023-06-10T08:29:23;9.70;;;6.47;;
27539;SDS011;15906;52.046;4.724;2023-06-10T08:31:53;10.38;;;7.22;;
27539;SDS011;15906;52.046;4.724;2023-06-10T08:34:18;8.82;;;7.45;;
27539;SDS011;15906;52.046;4.724;2023-06-10T08:36:44;12.02;;;6.50;;
27539;SDS011;15906;52.046;4.724;2023-06-10T08:39:10;9.93;;;6.25;;
27539;SDS011;15906;52.046;4.724;2023-06-10T08:41:43;10.27;;;6.80;;
27539;SDS011;15906;52.046;4.724;2023-06-10T08:44:29;7.57;;;6.60;;
27539;SDS011;15906;52.046;4.724;2023-06-10T08:47:01;10.52;;;6.90;;
27539;SDS011;15906;52.046;4.724;2023-06-10T08:49:41;11.32;;;7.38;;
27539;SDS011;15906;52.046;4.724;2023-06-10T08:52:11;12.07;;;7.32;;
27539;SDS011;15906;52.046;4.724;2023-06-10T08:54:46;13.40;;;7.47;;
27539;SDS011;15906;52.046;4.724;2023-06-10T08:57:34;10.18;;;6.88;;
27539;SDS011;15906;52.046;4.724;2023-06-10T09:00:01;10.40;;;6.70;;
27539;SDS011;15906;52.046;4.724;2023-06-10T09:02:28;8.55;;;7.05;;
27539;SDS011;15906;52.046;4.724;2023-06-10T09:04:55;9.75;;;6.85;;
27539;SDS011;15906;52.046;4.724;2023-06-10T09:07:22;11.00;;;6.68;;
27539;SDS011;15906;52.046;4.724;2023-06-10T09:09:48;11.30;;;6.60;;
27539;SDS011;15906;52.046;4.724;2023-06-10T09:12:14;8.50;;;6.60;;
27539;SDS011;15906;52.046;4.724;2023-06-10T09:14:40;11.88;;;7.22;;
27539;SDS011;15906;52.046;4.724;2023-06-10T09:17:07;8.68;;;6.45;;
27539;SDS011;15906;52.046;4.724;2023-06-10T09:19:32;8.43;;;6.65;;
27539;SDS011;15906;52.046;4.724;2023-06-10T09:21:59;10.95;;;6.63;;
27539;SDS011;15906;52.046;4.724;2023-06-10T09:24:25;7.72;;;6.65;;
27539;SDS011;15906;52.046;4.724;2023-06-10T09:27:01;11.45;;;6.75;;
27539;SDS011;15906;52.046;4.724;2023-06-10T09:29:28;8.88;;;7.32;;
27539;SDS011;15906;52.046;4.724;2023-06-10T09:31:53;9.43;;;6.82;;
27539;SDS011;15906;52.046;4.724;2023-06-10T09:34:19;11.07;;;8.20;;
27539;SDS011;15906;52.046;4.724;2023-06-10T09:36:49;10.25;;;7.72;;
27539;SDS011;15906;52.046;4.724;2023-06-10T09:39:17;9.50;;;6.75;;
27539;SDS011;15906;52.046;4.724;2023-06-10T09:41:44;8.77;;;7.00;;
27539;SDS011;15906;52.046;4.724;2023-06-10T09:44:17;9.02;;;7.10;;
27539;SDS011;15906;52.046;4.724;2023-06-10T09:46:50;10.00;;;7.07;;
27539;SDS011;15906;52.046;4.724;2023-06-10T09:49:16;9.40;;;6.50;;
27539;SDS011;15906;52.046;4.724;2023-06-10T09:51:52;12.10;;;7.32;;
27539;SDS011;15906;52.046;4.724;2023-06-10T09:54:19;7.60;;;6.80;;
27539;SDS011;15906;52.046;4.724;2023-06-10T09:56:48;8.68;;;7.07;;
27539;SDS011;15906;52.046;4.724;2023-06-10T09:59:16;11.02;;;7.45;;
27539;SDS011;15906;52.046;4.724;2023-06-10T10:01:54;9.88;;;7.38;;
27539;SDS011;15906;52.046;4.724;2023-06-10T10:04:24;14.38;;;7.40;;
27539;SDS011;15906;52.046;4.724;2023-06-10T10:06:50;11.80;;;7.15;;
27539;SDS011;15906;52.046;4.724;2023-06-10T10:09:16;12.75;;;7.97;;
27539;SDS011;15906;52.046;4.724;2023-06-10T10:11:41;9.48;;;7.20;;
27539;SDS011;15906;52.046;4.724;2023-06-10T10:14:09;8.98;;;7.28;;
27539;SDS011;15906;52.046;4.724;2023-06-10T10:16:37;10.52;;;6.90;;
27539;SDS011;15906;52.046;4.724;2023-06-10T10:19:07;12.98;;;6.90;;
27539;SDS011;15906;52.046;4.724;2023-06-10T10:21:41;11.35;;;7.10;;
27539;SDS011;15906;52.046;4.724;2023-06-10T10:26:39;11.25;;;6.57;;
27539;SDS011;15906;52.046;4.724;2023-06-10T10:29:14;10.13;;;7.43;;
27539;SDS011;15906;52.046;4.724;2023-06-10T10:31:50;11.93;;;7.80;;
27539;SDS011;15906;52.046;4.724;2023-06-10T10:34:21;10.50;;;6.75;;
27539;SDS011;15906;52.046;4.724;2023-06-10T10:36:54;9.18;;;6.93;;
27539;SDS011;15906;52.046;4.724;2023-06-10T10:39:20;13.77;;;7.05;;
27539;SDS011;15906;52.046;4.724;2023-06-10T10:41:46;12.48;;;7.88;;
27539;SDS011;15906;52.046;4.724;2023-06-10T10:44:14;12.50;;;7.03;;
27539;SDS011;15906;52.046;4.724;2023-06-10T10:46:44;12.18;;;7.20;;
27539;SDS011;15906;52.046;4.724;2023-06-10T10:49:15;9.02;;;7.20;;
27539;SDS011;15906;52.046;4.724;2023-06-10T10:51:58;11.35;;;7.22;;
27539;SDS011;15906;52.046;4.724;2023-06-10T10:54:31;8.50;;;6.90;;
27539;SDS011;15906;52.046;4.724;2023-06-10T10:57:13;7.82;;;6.55;;
27539;SDS011;15906;52.046;4.724;2023-06-10T10:59:52;11.55;;;7.07;;
27539;SDS011;15906;52.046;4.724;2023-06-10T11:02:40;9.90;;;7.78;;
27539;SDS011;15906;52.046;4.724;2023-06-10T11:05:11;11.10;;;7.35;;
27539;SDS011;15906;52.046;4.724;2023-06-10T11:07:39;11.82;;;7.75;;
27539;SDS011;15906;52.046;4.724;2023-06-10T11:10:09;9.13;;;7.45;;
27539;SDS011;15906;52.046;4.724;2023-06-10T11:15:18;9.35;;;6.75;;
27539;SDS011;15906;52.046;4.724;2023-06-10T11:20:51;8.18;;;6.45;;
27539;SDS011;15906;52.046;4.724;2023-06-10T11:31:18;10.25;;;7.00;;
27539;SDS011;15906;52.046;4.724;2023-06-10T11:33:48;9.45;;;7.60;;
27539;SDS011;15906;52.046;4.724;2023-06-10T11:36:28;9.32;;;7.13;;
27539;SDS011;15906;52.046;4.724;2023-06-10T11:38:58;11.20;;;6.60;;
27539;SDS011;15906;52.046;4.724;2023-06-10T11:41:25;7.65;;;6.53;;
27539;SDS011;15906;52.046;4.724;2023-06-10T11:43:52;10.52;;;7.05;;
27539;SDS011;15906;52.046;4.724;2023-06-10T11:46:19;12.32;;;7.28;;
27539;SDS011;15906;52.046;4.724;2023-06-10T11:48:57;7.40;;;6.70;;
27539;SDS011;15906;52.046;4.724;2023-06-10T11:51:27;12.95;;;7.15;;
27539;SDS011;15906;52.046;4.724;2023-06-10T11:53:55;8.25;;;7.13;;
27539;SDS011;15906;52.046;4.724;2023-06-10T11:56:27;8.52;;;7.15;;
27539;SDS011;15906;52.046;4.724;2023-06-10T12:01:25;12.13;;;7.03;;
27539;SDS011;15906;52.046;4.724;2023-06-10T12:04:11;9.23;;;6.80;;
27539;SDS011;15906;52.046;4.724;2023-06-10T12:06:41;8.43;;;7.32;;
27539;SDS011;15906;52.046;4.724;2023-06-10T12:09:28;8.43;;;7.28;;
27539;SDS011;15906;52.046;4.724;2023-06-10T12:11:56;8.07;;;7.22;;
27539;SDS011;15906;52.046;4.724;2023-06-10T12:17:22;8.82;;;6.80;;
27539;SDS011;15906;52.046;4.724;2023-06-10T12:20:02;8.80;;;6.70;;
27539;SDS011;15906;52.046;4.724;2023-06-10T12:23:10;9.95;;;6.53;;
27539;SDS011;15906;52.046;4.724;2023-06-10T12:25:25;7.97;;;6.78;;
27539;SDS011;15906;52.046;4.724;2023-06-10T12:27:52;10.05;;;6.65;;
27539;SDS011;15906;52.046;4.724;2023-06-10T12:30:20;7.47;;;6.55;;
27539;SDS011;15906;52.046;4.724;2023-06-10T12:32:47;8.35;;;7.30;;
27539;SDS011;15906;52.046;4.724;2023-06-10T12:35:14;8.07;;;7.28;;
27539;SDS011;15906;52.046;4.724;2023-06-10T12:37:42;9.40;;;6.88;;
27539;SDS011;15906;52.046;4.724;2023-06-10T12:40:25;9.75;;;6.63;;
27539;SDS011;15906;52.046;4.724;2023-06-10T12:42:52;10.75;;;6.82;;
27539;SDS011;15906;52.046;4.724;2023-06-10T12:45:26;9.18;;;6.88;;
27539;SDS011;15906;52.046;4.724;2023-06-10T12:48:06;8.48;;;6.60;;
27539;SDS011;15906;52.046;4.724;2023-06-10T12:50:39;10.05;;;6.75;;
27539;SDS011;15906;52.046;4.724;2023-06-10T12:53:05;8.75;;;6.72;;
27539;SDS011;15906;52.046;4.724;2023-06-10T12:55:31;10.00;;;7.57;;
27539;SDS011;15906;52.046;4.724;2023-06-10T12:57:58;8.15;;;6.32;;
27539;SDS011;15906;52.046;4.724;2023-06-10T13:00:24;9.80;;;6.57;;
27539;SDS011;15906;52.046;4.724;2023-06-10T13:02:55;7.93;;;6.45;;
27539;SDS011;15906;52.046;4.724;2023-06-10T13:05:25;9.73;;;6.65;;
27539;SDS011;15906;52.046;4.724;2023-06-10T13:07:51;10.93;;;6.70;;
27539;SDS011;15906;52.046;4.724;2023-06-10T13:10:17;8.07;;;6.35;;
27539;SDS011;15906;52.046;4.724;2023-06-10T13:12:43;9.10;;;6.90;;
27539;SDS011;15906;52.046;4.724;2023-06-10T13:15:09;9.90;;;6.80;;
27539;SDS011;15906;52.046;4.724;2023-06-10T13:17:35;8.23;;;6.68;;
27539;SDS011;15906;52.046;4.724;2023-06-10T13:20:02;8.73;;;7.45;;
27539;SDS011;15906;52.046;4.724;2023-06-10T13:22:30;9.93;;;7.05;;
27539;SDS011;15906;52.046;4.724;2023-06-10T13:24:58;7.90;;;6.90;;
27539;SDS011;15906;52.046;4.724;2023-06-10T13:27:24;7.75;;;6.95;;
27539;SDS011;15906;52.046;4.724;2023-06-10T13:29:50;11.18;;;7.15;;
27539;SDS011;15906;52.046;4.724;2023-06-10T13:32:15;10.70;;;7.32;;
27539;SDS011;15906;52.046;4.724;2023-06-10T13:34:41;8.82;;;7.38;;
27539;SDS011;15906;52.046;4.724;2023-06-10T13:37:06;9.02;;;6.80;;
27539;SDS011;15906;52.046;4.724;2023-06-10T13:39:32;9.52;;;7.20;;
27539;SDS011;15906;52.046;4.724;2023-06-10T13:41:58;6.97;;;6.28;;
27539;SDS011;15906;52.046;4.724;2023-06-10T13:44:23;7.68;;;6.80;;
27539;SDS011;15906;52.046;4.724;2023-06-10T13:46:49;6.95;;;6.25;;
27539;SDS011;15906;52.046;4.724;2023-06-10T13:49:14;9.98;;;6.43;;
27539;SDS011;15906;52.046;4.724;2023-06-10T13:51:40;7.63;;;6.82;;
27539;SDS011;15906;52.046;4.724;2023-06-10T13:54:05;8.45;;;6.15;;
27539;SDS011;15906;52.046;4.724;2023-06-10T13:56:31;7.85;;;6.63;;
27539;SDS011;15906;52.046;4.724;2023-06-10T13:58:58;8.73;;;6.85;;
27539;SDS011;15906;52.046;4.724;2023-06-10T14:01:24;7.18;;;6.47;;
27539;SDS011;15906;52.046;4.724;2023-06-10T14:03:50;10.77;;;6.32;;
27539;SDS011;15906;52.046;4.724;2023-06-10T14:06:16;7.00;;;6.30;;
27539;SDS011;15906;52.046;4.724;2023-06-10T14:08:44;7.63;;;6.75;;
27539;SDS011;15906;52.046;4.724;2023-06-10T14:11:10;10.32;;;6.57;;
27539;SDS011;15906;52.046;4.724;2023-06-10T14:13:36;7.95;;;6.30;;
27539;SDS011;15906;52.046;4.724;2023-06-10T14:16:03;9.75;;;6.53;;
27539;SDS011;15906;52.046;4.724;2023-06-10T14:18:29;9.98;;;6.35;;
27539;SDS011;15906;52.046;4.724;2023-06-10T14:20:55;7.03;;;6.40;;
27539;SDS011;15906;52.046;4.724;2023-06-10T14:23:21;8.48;;;6.50;;
27539;SDS011;15906;52.046;4.724;2023-06-10T14:25:46;9.32;;;6.80;;
27539;SDS011;15906;52.046;4.724;2023-06-10T14:28:12;7.00;;;6.25;;
27539;SDS011;15906;52.046;4.724;2023-06-10T14:30:37;7.47;;;6.35;;
27539;SDS011;15906;52.046;4.724;2023-06-10T14:33:03;8.07;;;6.38;;
27539;SDS011;15906;52.046;4.724;2023-06-10T14:35:29;8.70;;;6.97;;
27539;SDS011;15906;52.046;4.724;2023-06-10T14:37:54;7.88;;;6.43;;
27539;SDS011;15906;52.046;4.724;2023-06-10T14:40:20;7.70;;;6.22;;
27539;SDS011;15906;52.046;4.724;2023-06-10T14:42:47;10.40;;;6.90;;
27539;SDS011;15906;52.046;4.724;2023-06-10T14:45:13;11.80;;;6.60;;
27539;SDS011;15906;52.046;4.724;2023-06-10T14:47:40;10.32;;;7.05;;
27539;SDS011;15906;52.046;4.724;2023-06-10T14:50:05;10.73;;;6.63;;
27539;SDS011;15906;52.046;4.724;2023-06-10T14:52:31;7.35;;;5.88;;
27539;SDS011;15906;52.046;4.724;2023-06-10T14:54:57;6.53;;;5.70;;
27539;SDS011;15906;52.046;4.724;2023-06-10T14:57:22;6.43;;;5.43;;
27539;SDS011;15906;52.046;4.724;2023-06-10T14:59:48;8.35;;;5.65;;
27539;SDS011;15906;52.046;4.724;2023-06-10T15:02:13;11.63;;;5.82;;
27539;SDS011;15906;52.046;4.724;2023-06-10T15:04:39;8.15;;;5.70;;